createdAt,value
2023-12-09T00:02:00.786Z,83.47
2023-12-09T00:04:53.290Z,83.49
2023-12-09T00:07:49.208Z,83.55
2023-12-09T00:10:42.534Z,83.62
2023-12-09T00:13:36.147Z,83.63
2023-12-09T00:16:15.128Z,83.59
2023-12-09T00:19:08.671Z,83.62
2023-12-09T00:22:03.363Z,83.77
2023-12-09T00:24:55.881Z,83.71
2023-12-09T00:27:52.404Z,83.63
2023-12-09T00:30:46.277Z,83.64
2023-12-09T00:33:29.374Z,83.49
2023-12-09T00:36:24.714Z,83.49
2023-12-09T00:39:17.902Z,83.37
2023-12-09T00:42:11.592Z,83.31
2023-12-09T00:45:04.843Z,83.26
2023-12-09T00:48:01.257Z,83.29
2023-12-09T00:50:56.959Z,83.22
2023-12-09T00:53:49.470Z,83.21
2023-12-09T00:56:42.969Z,83.23
2023-12-09T00:59:36.719Z,83.12
2023-12-09T01:02:30.104Z,82.93
2023-12-09T01:05:15.220Z,82.89
2023-12-09T01:08:08.029Z,83.15
2023-12-09T01:10:58.293Z,82.98
2023-12-09T01:13:53.098Z,82.77
2023-12-09T01:16:44.958Z,82.81
2023-12-09T01:19:39.028Z,82.82
2023-12-09T01:22:31.632Z,82.89
2023-12-09T01:25:27.215Z,83.32
2023-12-09T01:28:20.267Z,83.42
2023-12-09T01:31:13.002Z,83.68
2023-12-09T01:34:03.541Z,83.97
2023-12-09T01:36:57.673Z,84.26
2023-12-09T01:39:50.365Z,84.05
2023-12-09T01:42:35.640Z,83.91
2023-12-09T01:45:28.284Z,83.81
2023-12-09T01:48:21.586Z,83.86
2023-12-09T01:51:17.883Z,83.36
2023-12-09T01:54:11.261Z,82.99
2023-12-09T01:56:57.563Z,82.89
2023-12-09T01:59:38.718Z,82.72
2023-12-09T02:02:29.564Z,82.77
2023-12-09T02:05:23.236Z,82.84
2023-12-09T02:08:17.804Z,82.86
2023-12-09T02:11:11.051Z,82.86
2023-12-09T02:14:09.606Z,82.78
2023-12-09T02:17:08.760Z,82.94
2023-12-09T02:20:04.120Z,82.89
2023-12-09T02:23:07.369Z,82.90
2023-12-09T02:26:06.296Z,82.92
2023-12-09T02:29:07.161Z,82.72
2023-12-09T02:32:06.525Z,82.69
2023-12-09T02:34:55.566Z,82.84
2023-12-09T02:37:48.931Z,82.53
2023-12-09T02:40:43.472Z,82.40
2023-12-09T02:43:36.362Z,82.27
2023-12-09T02:46:28.978Z,81.92
2023-12-09T02:49:21.551Z,81.83
2023-12-09T02:52:14.903Z,81.61
2023-12-09T02:55:09.063Z,81.47
2023-12-09T02:58:03.548Z,81.43
2023-12-09T03:00:50.452Z,81.46
2023-12-09T03:03:43.288Z,81.67
2023-12-09T03:06:38.309Z,81.88
2023-12-09T03:09:32.435Z,83.56
2023-12-09T03:12:26.838Z,83.87
2023-12-09T03:15:19.898Z,81.95
2023-12-09T03:18:06.212Z,81.27
2023-12-09T03:20:59.529Z,81.68
2023-12-09T03:23:53.101Z,81.06
2023-12-09T03:26:38.473Z,80.32
2023-12-09T03:29:26.021Z,79.52
2023-12-09T03:32:20.784Z,78.99
2023-12-09T03:35:15.007Z,78.88
2023-12-09T03:38:10.289Z,78.94
2023-12-09T03:41:06.999Z,78.38
2023-12-09T03:44:00.526Z,78.55
2023-12-09T03:46:54.067Z,78.31
2023-12-09T03:49:46.803Z,78.41
2023-12-09T03:52:40.402Z,78.61
2023-12-09T03:55:33.047Z,77.85
2023-12-09T03:58:29.000Z,77.64
2023-12-09T04:01:26.465Z,77.64
2023-12-09T04:04:21.480Z,77.61
2023-12-09T04:07:13.309Z,77.79
2023-12-09T04:10:06.765Z,78.42
2023-12-09T04:12:59.511Z,79.01
2023-12-09T04:15:52.884Z,79.41
2023-12-09T04:18:45.980Z,79.69
2023-12-09T04:21:38.533Z,80.04
2023-12-09T04:24:31.753Z,80.41
2023-12-09T04:27:24.418Z,80.07
2023-12-09T04:30:20.709Z,80.37
2023-12-09T04:32:53.370Z,80.13
2023-12-09T04:35:49.488Z,80.13
2023-12-09T04:38:42.569Z,79.71
2023-12-09T04:41:35.633Z,79.61
2023-12-09T04:44:30.626Z,79.67
2023-12-09T04:47:43.747Z,79.78
2023-12-09T04:50:36.278Z,79.68
2023-12-09T04:53:29.146Z,80.43
2023-12-09T04:56:20.372Z,79.89
2023-12-09T04:59:13.697Z,79.35
2023-12-09T05:02:05.773Z,79.14
2023-12-09T05:05:06.053Z,79.26
2023-12-09T05:07:58.790Z,79.16
2023-12-09T05:10:46.719Z,79.10
2023-12-09T05:13:39.740Z,79.05
2023-12-09T05:16:33.963Z,78.99
2023-12-09T05:19:30.269Z,78.88
2023-12-09T05:22:23.820Z,79.57
2023-12-09T05:25:09.192Z,79.60
2023-12-09T05:28:02.087Z,79.52
2023-12-09T05:30:46.579Z,79.84
2023-12-09T05:33:21.428Z,80.13
2023-12-09T05:36:14.764Z,80.16
2023-12-09T05:39:08.137Z,80.18
2023-12-09T05:42:01.006Z,79.97
2023-12-09T05:44:53.539Z,79.97
2023-12-09T05:47:46.606Z,79.86
2023-12-09T05:50:39.779Z,79.91
2023-12-09T05:53:33.047Z,79.93
2023-12-09T05:56:25.596Z,79.93
2023-12-09T05:59:00.425Z,79.97
2023-12-09T06:01:43.073Z,79.95
2023-12-09T06:04:35.785Z,80.03
2023-12-09T06:07:28.724Z,80.00
2023-12-09T06:10:15.935Z,80.05
2023-12-09T06:13:08.656Z,80.32
2023-12-09T06:16:01.344Z,80.42
2023-12-09T06:18:53.968Z,80.22
2023-12-09T06:21:47.969Z,80.24
2023-12-09T06:24:33.223Z,80.17
2023-12-09T06:27:26.978Z,80.21
2023-12-09T06:30:19.677Z,80.08
2023-12-09T06:33:15.767Z,79.99
2023-12-09T06:35:58.883Z,80.03
2023-12-09T06:38:54.962Z,80.23
2023-12-09T06:41:48.562Z,80.26
2023-12-09T06:44:41.493Z,80.27
2023-12-09T06:47:28.790Z,80.45
2023-12-09T06:50:15.896Z,80.59
2023-12-09T06:52:56.791Z,80.82
2023-12-09T06:55:43.120Z,81.00
2023-12-09T06:58:36.395Z,81.20
2023-12-09T07:01:29.882Z,81.51
2023-12-09T07:04:25.879Z,81.65
2023-12-09T07:07:22.379Z,81.74
2023-12-09T07:10:16.361Z,81.90
2023-12-09T07:13:09.045Z,81.89
2023-12-09T07:16:09.573Z,81.97
2023-12-09T07:19:03.574Z,81.87
2023-12-09T07:21:46.255Z,81.78
2023-12-09T07:24:29.280Z,81.41
2023-12-09T07:27:12.209Z,81.27
2023-12-09T07:30:03.633Z,81.21
2023-12-09T07:32:56.622Z,81.10
2023-12-09T07:35:50.248Z,81.23
2023-12-09T07:38:43.310Z,81.25
2023-12-09T07:41:36.046Z,81.16
2023-12-09T07:44:28.751Z,81.05
2023-12-09T07:47:20.078Z,80.65
2023-12-09T07:50:00.131Z,80.20
2023-12-09T07:52:53.671Z,80.06
2023-12-09T07:55:45.126Z,80.32
2023-12-09T07:58:40.069Z,80.79
2023-12-09T08:01:36.778Z,80.83
2023-12-09T08:04:23.289Z,80.78
2023-12-09T08:07:18.274Z,80.74
2023-12-09T08:10:02.236Z,80.82
2023-12-09T08:12:56.281Z,80.79
2023-12-09T08:15:34.209Z,80.68
2023-12-09T08:29:51.693Z,78.39
2023-12-09T08:32:45.339Z,78.80
2023-12-09T08:35:40.947Z,79.12
2023-12-09T08:38:34.610Z,79.64
2023-12-09T08:41:30.565Z,80.23
2023-12-09T08:44:16.095Z,80.45
2023-12-09T08:47:03.599Z,80.48
2023-12-09T08:49:56.137Z,79.87
2023-12-09T08:52:50.825Z,80.01
2023-12-09T08:55:34.683Z,80.17
2023-12-09T08:58:29.783Z,79.86
2023-12-09T09:01:16.636Z,79.87
2023-12-09T09:04:11.684Z,79.72
2023-12-09T09:07:04.512Z,79.69
2023-12-09T09:10:00.253Z,79.20
2023-12-09T09:12:53.043Z,78.99
2023-12-09T09:15:38.358Z,78.97
2023-12-09T09:18:23.767Z,79.43
2023-12-09T09:21:09.370Z,79.54
2023-12-09T09:23:58.848Z,79.46
2023-12-09T09:26:43.962Z,79.53
2023-12-09T09:29:27.791Z,79.48
2023-12-09T09:32:21.160Z,79.21
2023-12-09T09:35:14.223Z,78.98
2023-12-09T09:38:08.889Z,78.64
2023-12-09T09:41:01.598Z,78.43
2023-12-09T09:44:03.374Z,78.82
2023-12-09T09:46:59.651Z,78.45
2023-12-09T09:49:47.727Z,78.38
2023-12-09T09:52:44.110Z,78.11
2023-12-09T09:55:36.779Z,78.27
2023-12-09T09:58:30.026Z,78.57
2023-12-09T10:01:26.775Z,78.66
2023-12-09T10:04:23.348Z,78.46
2023-12-09T10:07:16.898Z,78.15
2023-12-09T10:10:12.076Z,77.83
2023-12-09T10:13:04.806Z,78.25
2023-12-09T10:15:50.400Z,77.98
2023-12-09T10:18:33.946Z,77.28
2023-12-09T10:21:31.420Z,76.81
2023-12-09T10:24:24.740Z,76.33
2023-12-09T10:27:20.948Z,76.26
2023-12-09T10:30:15.443Z,75.50
2023-12-09T10:33:04.290Z,75.02
2023-12-09T10:36:00.760Z,74.36
2023-12-09T10:38:58.537Z,74.05
2023-12-09T10:41:48.432Z,73.90
2023-12-09T10:44:41.741Z,73.95
2023-12-09T10:47:34.775Z,73.35
2023-12-09T10:50:26.317Z,73.14
2023-12-09T10:53:15.818Z,72.70
2023-12-09T10:56:02.336Z,72.49
2023-12-09T10:59:09.783Z,72.37
2023-12-09T11:02:07.318Z,72.12
2023-12-09T11:05:01.028Z,72.04
2023-12-09T11:07:49.023Z,71.97
2023-12-09T11:10:44.697Z,71.51
2023-12-09T11:13:31.358Z,70.94
2023-12-09T11:16:24.564Z,70.76
2023-12-09T11:19:20.878Z,70.70
2023-12-09T11:22:06.195Z,70.39
2023-12-09T11:24:59.754Z,70.25
2023-12-09T11:27:45.864Z,69.59
2023-12-09T11:30:38.939Z,70.06
2023-12-09T11:33:31.751Z,69.79
2023-12-09T11:36:46.080Z,70.37
2023-12-09T11:39:39.557Z,70.37
2023-12-09T11:42:34.958Z,70.06
2023-12-09T11:45:28.700Z,69.73
2023-12-09T11:48:11.486Z,69.40
2023-12-09T11:51:09.482Z,69.50
2023-12-09T11:54:03.590Z,69.44
2023-12-09T11:56:56.207Z,69.60
2023-12-09T11:59:48.128Z,69.15
2023-12-09T12:02:42.024Z,69.13
2023-12-09T12:05:34.744Z,68.91
2023-12-09T12:08:27.660Z,69.14
2023-12-09T12:11:14.348Z,68.77
2023-12-09T12:14:09.109Z,68.74
2023-12-09T12:17:02.238Z,69.17
2023-12-09T12:19:55.369Z,68.83
2023-12-09T12:22:51.273Z,68.83
2023-12-09T12:25:44.592Z,68.87
2023-12-09T12:28:38.206Z,69.16
2023-12-09T12:31:21.778Z,69.20
2023-12-09T12:34:20.233Z,69.32
2023-12-09T12:37:13.576Z,69.52
2023-12-09T12:40:02.087Z,69.67
2023-12-09T12:42:55.243Z,69.76
2023-12-09T12:45:56.029Z,69.78
2023-12-09T12:48:41.767Z,69.93
2023-12-09T12:51:40.499Z,70.21
2023-12-09T12:54:33.721Z,70.36
2023-12-09T12:57:20.898Z,70.50
2023-12-09T13:00:18.547Z,70.72
2023-12-09T13:03:06.478Z,70.79
2023-12-09T13:05:59.723Z,70.96
2023-12-09T13:08:54.096Z,71.23
2023-12-09T13:11:49.744Z,71.43
2023-12-09T13:14:41.579Z,71.50
2023-12-09T13:17:28.883Z,71.60
2023-12-09T13:20:24.869Z,71.70
2023-12-09T13:23:17.862Z,71.92
2023-12-09T13:26:05.268Z,72.19
2023-12-09T13:28:50.904Z,72.36
2023-12-09T13:31:48.941Z,72.64
2023-12-09T13:34:41.898Z,72.74
2023-12-09T13:37:27.463Z,72.90
2023-12-09T13:40:20.894Z,73.02
2023-12-09T13:43:13.664Z,73.21
2023-12-09T13:46:07.085Z,73.39
2023-12-09T13:49:00.108Z,73.62
2023-12-09T13:51:52.941Z,73.77
2023-12-09T13:54:46.108Z,73.90
2023-12-09T13:57:38.992Z,74.12
2023-12-09T14:00:32.370Z,74.25
2023-12-09T14:03:25.345Z,74.43
2023-12-09T14:06:11.351Z,74.61
2023-12-09T14:09:08.936Z,74.80
2023-12-09T14:12:01.606Z,74.98
2023-12-09T14:14:56.330Z,75.12
2023-12-09T14:17:50.669Z,75.30
2023-12-09T14:20:44.592Z,75.46
2023-12-09T14:23:37.726Z,75.70
2023-12-09T14:26:31.584Z,75.93
2023-12-09T14:29:26.482Z,76.11
2023-12-09T14:32:19.285Z,76.33
2023-12-09T14:35:15.505Z,76.63
2023-12-09T14:38:09.855Z,76.85
2023-12-09T14:41:04.449Z,76.89
2023-12-09T14:44:03.375Z,77.06
2023-12-09T14:47:03.085Z,77.23
2023-12-09T14:50:09.418Z,77.34
2023-12-09T14:53:02.298Z,77.54
2023-12-09T14:55:55.890Z,77.73
2023-12-09T14:58:48.589Z,77.95
2023-12-09T15:01:41.666Z,78.38
2023-12-09T15:04:15.138Z,78.51
2023-12-09T15:07:11.226Z,78.61
2023-12-09T15:10:05.129Z,78.70
2023-12-09T15:12:57.969Z,78.86
2023-12-09T15:15:50.851Z,78.99
2023-12-09T15:18:43.782Z,79.20
2023-12-09T15:21:37.064Z,79.37
2023-12-09T15:24:30.029Z,79.49
2023-12-09T15:27:22.912Z,79.55
2023-12-09T15:30:29.032Z,79.69
2023-12-09T15:33:22.014Z,79.83
2023-12-09T15:36:10.047Z,80.00
2023-12-09T15:39:03.180Z,80.06
2023-12-09T15:41:55.533Z,80.10
2023-12-09T15:44:41.376Z,80.15
2023-12-09T15:47:26.388Z,80.19
2023-12-09T15:50:18.080Z,80.29
2023-12-09T15:52:55.555Z,80.39
2023-12-09T15:55:51.432Z,80.47
2023-12-09T15:58:44.706Z,80.43
2023-12-09T16:01:38.382Z,80.47
2023-12-09T16:04:33.320Z,80.48
2023-12-09T16:07:18.776Z,80.48
2023-12-09T16:10:14.121Z,80.62
2023-12-09T16:13:10.694Z,80.71
2023-12-09T16:16:05.788Z,80.73
2023-12-09T16:18:53.828Z,80.80
2023-12-09T16:21:39.259Z,80.79
2023-12-09T16:24:32.225Z,80.82
2023-12-09T16:27:26.340Z,80.88
2023-12-09T16:30:19.328Z,80.93
2023-12-09T16:33:05.043Z,81.07
2023-12-09T16:35:58.241Z,81.16
2023-12-09T16:38:51.037Z,81.19
2023-12-09T16:41:47.846Z,81.25
2023-12-09T16:44:40.719Z,81.34
2023-12-09T16:47:35.352Z,81.33
2023-12-09T16:50:28.256Z,81.35
2023-12-09T16:53:20.948Z,81.43
2023-12-09T16:56:14.074Z,81.31
2023-12-09T16:59:09.624Z,81.19
2023-12-09T17:01:55.415Z,81.27
2023-12-09T17:04:51.311Z,81.47
2023-12-09T17:07:37.603Z,81.67
2023-12-09T17:10:30.374Z,81.63
2023-12-09T17:13:23.879Z,81.62
2023-12-09T17:16:16.811Z,81.62
2023-12-09T17:19:04.510Z,81.63
2023-12-09T17:21:57.992Z,81.61
2023-12-09T17:24:50.995Z,81.65
2023-12-09T17:27:43.968Z,81.68
2023-12-09T17:30:30.568Z,81.66
2023-12-09T17:33:13.792Z,81.66
2023-12-09T17:36:05.900Z,81.64
2023-12-09T17:38:59.166Z,81.59
2023-12-09T17:42:12.416Z,81.51
2023-12-09T17:44:55.031Z,81.36
2023-12-09T17:47:40.851Z,81.34
2023-12-09T17:50:26.642Z,81.39
2023-12-09T17:53:21.371Z,81.35
2023-12-09T17:56:14.404Z,81.26
2023-12-09T17:59:07.583Z,81.21
2023-12-09T18:02:03.048Z,81.29
2023-12-09T18:04:55.742Z,81.24
2023-12-09T18:07:48.629Z,81.18
2023-12-09T18:10:41.564Z,81.13
2023-12-09T18:13:35.871Z,81.12
2023-12-09T18:16:31.003Z,81.09
2023-12-09T18:19:25.862Z,81.09
2023-12-09T18:22:21.254Z,81.04
2023-12-09T18:25:16.034Z,81.03
2023-12-09T18:28:10.600Z,81.01
2023-12-09T18:31:04.603Z,80.96
2023-12-09T18:33:57.766Z,80.94
2023-12-09T18:36:54.476Z,80.84
2023-12-09T18:39:49.763Z,80.78
2023-12-09T18:42:42.898Z,80.75
2023-12-09T18:45:36.965Z,80.72
2023-12-09T18:48:30.619Z,80.71
2023-12-09T18:51:23.645Z,80.62
2023-12-09T18:54:16.477Z,80.57
2023-12-09T18:57:09.576Z,80.56
2023-12-09T19:00:05.480Z,80.56
2023-12-09T19:03:01.712Z,80.54
2023-12-09T19:05:51.605Z,80.52
2023-12-09T19:08:44.642Z,80.50
2023-12-09T19:11:37.456Z,80.59
2023-12-09T19:14:22.900Z,80.61
2023-12-09T19:17:08.491Z,80.69
2023-12-09T19:20:05.011Z,80.70
2023-12-09T19:23:00.283Z,80.72
2023-12-09T19:25:58.534Z,80.71
2023-12-09T19:28:51.182Z,80.66
2023-12-09T19:31:44.313Z,80.65
2023-12-09T19:34:37.503Z,80.61
2023-12-09T19:37:30.271Z,80.58
2023-12-09T19:40:26.157Z,80.58
2023-12-09T19:43:18.959Z,80.54
2023-12-09T19:46:11.759Z,80.52
2023-12-09T19:49:04.605Z,80.48
2023-12-09T19:52:00.547Z,80.48
2023-12-09T19:54:54.738Z,80.43
2023-12-09T19:57:48.263Z,80.41
2023-12-09T20:00:41.011Z,80.41
2023-12-09T20:03:20.285Z,80.38
2023-12-09T20:06:15.983Z,80.38
2023-12-09T20:09:01.826Z,80.33
2023-12-09T20:11:55.091Z,80.33
2023-12-09T20:14:48.059Z,80.33
2023-12-09T20:17:36.517Z,80.29
2023-12-09T20:20:27.508Z,80.28
2023-12-09T20:23:14.964Z,80.24
2023-12-09T20:26:08.916Z,80.19
2023-12-09T20:29:03.573Z,80.16
2023-12-09T20:31:56.286Z,80.12
2023-12-09T20:34:47.888Z,80.03
2023-12-09T20:37:40.776Z,79.96
2023-12-09T20:40:26.387Z,79.87
2023-12-09T20:43:20.912Z,79.78
2023-12-09T20:45:56.306Z,79.76
2023-12-09T20:48:52.286Z,79.69
2023-12-09T20:51:48.721Z,79.57
2023-12-09T20:54:47.998Z,79.54
2023-12-09T20:57:42.555Z,79.59
2023-12-09T21:00:35.590Z,79.57
2023-12-09T21:03:28.895Z,79.60
2023-12-09T21:06:18.469Z,79.52
2023-12-09T21:09:10.741Z,79.55
2023-12-09T21:12:04.493Z,79.51
2023-12-09T21:14:56.122Z,79.40
2023-12-09T21:17:34.225Z,79.54
2023-12-09T21:20:20.237Z,79.64
2023-12-09T21:23:12.985Z,79.67
2023-12-09T21:26:00.629Z,79.98
2023-12-09T21:28:53.372Z,80.40
2023-12-09T21:31:31.751Z,80.66
2023-12-09T21:34:25.157Z,80.95
2023-12-09T21:37:09.449Z,81.13
2023-12-09T21:40:05.021Z,81.23
2023-12-09T21:42:57.937Z,81.26
2023-12-09T21:45:53.273Z,81.25
2023-12-09T21:48:46.396Z,81.28
2023-12-09T21:51:19.189Z,81.29
2023-12-09T21:54:11.952Z,81.22
2023-12-09T21:56:48.460Z,81.24
2023-12-09T21:59:43.580Z,81.23
2023-12-09T22:02:35.097Z,81.22
2023-12-09T22:05:26.753Z,81.32
2023-12-09T22:08:20.110Z,81.28
2023-12-09T22:11:06.864Z,81.27
2023-12-09T22:14:00.006Z,81.15
2023-12-09T22:16:51.818Z,81.07
2023-12-09T22:19:30.699Z,81.01
2023-12-09T22:22:27.874Z,81.01
2023-12-09T22:25:21.168Z,80.98
2023-12-09T22:28:04.306Z,80.99
2023-12-09T22:30:58.686Z,81.05
2023-12-09T22:33:53.250Z,81.22
2023-12-09T22:36:47.106Z,81.38
2023-12-09T22:39:44.700Z,81.48
2023-12-09T22:42:42.818Z,81.52
2023-12-09T22:45:34.150Z,81.53
2023-12-09T22:48:29.980Z,81.42
2023-12-09T22:51:23.099Z,81.48
2023-12-09T22:54:18.569Z,81.48
2023-12-09T22:57:12.250Z,81.49
2023-12-09T23:00:05.046Z,81.50
2023-12-09T23:02:58.219Z,81.47
2023-12-09T23:05:51.237Z,81.37
2023-12-09T23:08:49.872Z,81.31
2023-12-09T23:11:42.704Z,81.24
2023-12-09T23:14:35.290Z,81.23
2023-12-09T23:17:28.128Z,81.11
2023-12-09T23:20:22.192Z,80.98
2023-12-09T23:23:14.955Z,80.99
2023-12-09T23:26:09.411Z,80.97
2023-12-09T23:29:02.098Z,80.91
2023-12-09T23:31:47.404Z,80.87
2023-12-09T23:34:39.956Z,80.87
2023-12-09T23:37:34.032Z,80.82
2023-12-09T23:40:26.944Z,80.76
2023-12-09T23:43:19.555Z,80.72
2023-12-09T23:46:15.121Z,80.67
2023-12-09T23:49:08.174Z,80.71
2023-12-09T23:52:02.324Z,80.71
2023-12-09T23:54:47.845Z,80.74
2023-12-09T23:57:40.389Z,80.80
